sensor_id;sensor_type;location;lat;lon;timestamp;pressure;altitude;pressure_sealevel;temperature;humidity
68301;BME280;55146;47.468;18.806;2023-10-19T00:01:08;99515.34;;;9.92;64.74
68301;BME280;55146;47.468;18.806;2023-10-19T00:03:35;99506.78;;;9.98;64.22
68301;BME280;55146;47.468;18.806;2023-10-19T00:06:00;99505.69;;;9.94;64.64
68301;BME280;55146;47.468;18.806;2023-10-19T00:08:26;99509.25;;;9.95;64.96
68301;BME280;55146;47.468;18.806;2023-10-19T00:11:02;99501.62;;;9.87;64.85
68301;BME280;55146;47.468;18.806;2023-10-19T00:13:34;99505.69;;;9.99;64.47
68301;BME280;55146;47.468;18.806;2023-10-19T00:16:03;99499.63;;;9.97;65.18
68301;BME280;55146;47.468;18.806;2023-10-19T00:18:36;99498.81;;;9.97;64.63
68301;BME280;55146;47.468;18.806;2023-10-19T00:21:06;99504.78;;;10.09;63.78
68301;BME280;55146;47.468;18.806;2023-10-19T00:23:46;99493.31;;;9.97;64.04
68301;BME280;55146;47.468;18.806;2023-10-19T00:26:15;99496.31;;;10.00;64.44
68301;BME280;55146;47.468;18.806;2023-10-19T00:28:43;99485.44;;;9.85;64.93
68301;BME280;55146;47.468;18.806;2023-10-19T00:31:11;99488.59;;;10.02;64.53
68301;BME280;55146;47.468;18.806;2023-10-19T00:33:37;99495.47;;;10.00;64.42
68301;BME280;55146;47.468;18.806;2023-10-19T00:36:09;99497.13;;;10.01;64.64
68301;BME280;55146;47.468;18.806;2023-10-19T00:38:39;99482.84;;;10.04;64.58
68301;BME280;55146;47.468;18.806;2023-10-19T00:41:07;99480.19;;;9.89;65.72
68301;BME280;55146;47.468;18.806;2023-10-19T00:43:37;99474.81;;;10.07;65.08
68301;BME280;55146;47.468;18.806;2023-10-19T00:46:11;99474.87;;;10.02;64.91
68301;BME280;55146;47.468;18.806;2023-10-19T00:48:57;99474.38;;;9.95;65.61
68301;BME280;55146;47.468;18.806;2023-10-19T00:51:33;99472.12;;;10.02;65.56
68301;BME280;55146;47.468;18.806;2023-10-19T00:54:06;99465.38;;;9.85;66.34
68301;BME280;55146;47.468;18.806;2023-10-19T00:56:46;99454.94;;;9.87;67.69
68301;BME280;55146;47.468;18.806;2023-10-19T00:59:16;99446.06;;;9.95;67.59
68301;BME280;55146;47.468;18.806;2023-10-19T01:02:01;99455.97;;;9.96;67.63
68301;BME280;55146;47.468;18.806;2023-10-19T01:04:46;99457.88;;;9.95;68.02
68301;BME280;55146;47.468;18.806;2023-10-19T01:07:18;99453.44;;;10.04;68.16
68301;BME280;55146;47.468;18.806;2023-10-19T01:09:48;99460.25;;;10.07;68.51
68301;BME280;55146;47.468;18.806;2023-10-19T01:12:17;99456.19;;;10.04;69.54
68301;BME280;55146;47.468;18.806;2023-10-19T01:15:08;99456.38;;;10.13;70.61
68301;BME280;55146;47.468;18.806;2023-10-19T01:17:52;99449.28;;;10.07;71.39
68301;BME280;55146;47.468;18.806;2023-10-19T01:20:20;99440.78;;;10.03;71.64
68301;BME280;55146;47.468;18.806;2023-10-19T01:25:21;99438.91;;;9.99;73.32
68301;BME280;55146;47.468;18.806;2023-10-19T01:28:06;99425.47;;;9.97;74.22
68301;BME280;55146;47.468;18.806;2023-10-19T01:30:34;99426.97;;;9.80;76.15
68301;BME280;55146;47.468;18.806;2023-10-19T01:33:01;99424.09;;;9.95;76.08
68301;BME280;55146;47.468;18.806;2023-10-19T01:35:28;99420.00;;;9.92;76.99
68301;BME280;55146;47.468;18.806;2023-10-19T01:38:13;99420.59;;;9.84;78.04
68301;BME280;55146;47.468;18.806;2023-10-19T01:40:38;99408.25;;;9.82;79.39
68301;BME280;55146;47.468;18.806;2023-10-19T01:43:11;99406.09;;;9.79;80.43
68301;BME280;55146;47.468;18.806;2023-10-19T01:45:45;99417.38;;;9.77;79.51
68301;BME280;55146;47.468;18.806;2023-10-19T01:48:10;99408.81;;;9.84;79.49
68301;BME280;55146;47.468;18.806;2023-10-19T01:50:38;99404.44;;;9.78;80.05
68301;BME280;55146;47.468;18.806;2023-10-19T01:53:04;99400.50;;;9.89;79.66
68301;BME280;55146;47.468;18.806;2023-10-19T01:55:38;99394.06;;;9.69;80.59
68301;BME280;55146;47.468;18.806;2023-10-19T01:58:03;99394.88;;;9.70;80.54
68301;BME280;55146;47.468;18.806;2023-10-19T02:00:29;99401.47;;;9.74;80.04
68301;BME280;55146;47.468;18.806;2023-10-19T02:02:54;99399.69;;;9.54;80.78
68301;BME280;55146;47.468;18.806;2023-10-19T02:05:21;99386.59;;;9.41;81.47
68301;BME280;55146;47.468;18.806;2023-10-19T02:07:47;99386.63;;;9.36;82.08
68301;BME280;55146;47.468;18.806;2023-10-19T02:10:12;99387.97;;;9.39;83.14
68301;BME280;55146;47.468;18.806;2023-10-19T02:12:38;99386.84;;;9.40;82.93
68301;BME280;55146;47.468;18.806;2023-10-19T02:15:07;99376.66;;;9.45;82.21
68301;BME280;55146;47.468;18.806;2023-10-19T02:17:33;99377.88;;;9.29;84.63
68301;BME280;55146;47.468;18.806;2023-10-19T02:19:59;99375.37;;;9.32;84.88
68301;BME280;55146;47.468;18.806;2023-10-19T02:22:24;99374.59;;;9.27;85.90
68301;BME280;55146;47.468;18.806;2023-10-19T02:24:50;99366.31;;;9.32;86.05
68301;BME280;55146;47.468;18.806;2023-10-19T02:27:15;99356.75;;;9.29;86.47
68301;BME280;55146;47.468;18.806;2023-10-19T02:29:40;99357.34;;;9.21;87.79
68301;BME280;55146;47.468;18.806;2023-10-19T02:32:07;99354.88;;;9.20;88.05
68301;BME280;55146;47.468;18.806;2023-10-19T02:34:32;99351.06;;;9.16;88.17
68301;BME280;55146;47.468;18.806;2023-10-19T02:37:00;99343.66;;;9.16;88.51
68301;BME280;55146;47.468;18.806;2023-10-19T02:39:26;99340.63;;;9.18;88.70
68301;BME280;55146;47.468;18.806;2023-10-19T02:41:53;99345.09;;;9.04;89.14
68301;BME280;55146;47.468;18.806;2023-10-19T02:44:20;99337.97;;;9.03;89.76
68301;BME280;55146;47.468;18.806;2023-10-19T02:46:54;99342.09;;;9.00;90.40
68301;BME280;55146;47.468;18.806;2023-10-19T02:49:31;99334.94;;;9.04;90.29
68301;BME280;55146;47.468;18.806;2023-10-19T02:51:56;99329.97;;;9.11;90.12
68301;BME280;55146;47.468;18.806;2023-10-19T02:54:28;99329.06;;;9.21;89.80
68301;BME280;55146;47.468;18.806;2023-10-19T02:56:58;99313.47;;;9.16;89.64
68301;BME280;55146;47.468;18.806;2023-10-19T02:59:25;99316.16;;;9.21;89.78
68301;BME280;55146;47.468;18.806;2023-10-19T03:01:58;99312.97;;;9.09;90.53
68301;BME280;55146;47.468;18.806;2023-10-19T03:04:32;99306.59;;;9.14;90.86
68301;BME280;55146;47.468;18.806;2023-10-19T03:07:01;99311.31;;;9.08;90.84
68301;BME280;55146;47.468;18.806;2023-10-19T03:09:28;99300.34;;;9.13;90.97
68301;BME280;55146;47.468;18.806;2023-10-19T03:11:56;99299.00;;;9.06;91.72
68301;BME280;55146;47.468;18.806;2023-10-19T03:14:25;99286.13;;;9.01;92.04
68301;BME280;55146;47.468;18.806;2023-10-19T03:16:52;99281.44;;;9.02;92.14
68301;BME280;55146;47.468;18.806;2023-10-19T03:19:20;99276.28;;;9.00;92.27
68301;BME280;55146;47.468;18.806;2023-10-19T03:21:45;99271.09;;;8.93;93.25
68301;BME280;55146;47.468;18.806;2023-10-19T03:24:14;99271.06;;;8.99;93.23
68301;BME280;55146;47.468;18.806;2023-10-19T03:26:58;99269.97;;;9.00;93.42
68301;BME280;55146;47.468;18.806;2023-10-19T03:29:25;99264.75;;;8.98;93.63
68301;BME280;55146;47.468;18.806;2023-10-19T03:31:57;99253.75;;;9.03;93.58
68301;BME280;55146;47.468;18.806;2023-10-19T03:34:24;99250.94;;;9.13;92.97
68301;BME280;55146;47.468;18.806;2023-10-19T03:36:50;99243.00;;;9.12;93.05
68301;BME280;55146;47.468;18.806;2023-10-19T03:39:16;99244.69;;;9.03;93.17
68301;BME280;55146;47.468;18.806;2023-10-19T03:41:43;99243.34;;;9.00;94.17
68301;BME280;55146;47.468;18.806;2023-10-19T03:44:10;99240.09;;;8.93;94.69
68301;BME280;55146;47.468;18.806;2023-10-19T03:46:42;99240.88;;;8.99;94.60
68301;BME280;55146;47.468;18.806;2023-10-19T03:49:19;99239.25;;;8.98;94.45
68301;BME280;55146;47.468;18.806;2023-10-19T03:51:45;99236.78;;;8.96;94.16
68301;BME280;55146;47.468;18.806;2023-10-19T03:54:46;99235.47;;;8.88;94.88
68301;BME280;55146;47.468;18.806;2023-10-19T03:57:15;99226.34;;;8.98;94.80
68301;BME280;55146;47.468;18.806;2023-10-19T03:59:44;99219.41;;;9.11;93.46
68301;BME280;55146;47.468;18.806;2023-10-19T04:02:10;99220.91;;;8.93;94.12
68301;BME280;55146;47.468;18.806;2023-10-19T04:04:40;99217.84;;;9.00;93.60
68301;BME280;55146;47.468;18.806;2023-10-19T04:07:11;99206.66;;;8.91;94.62
68301;BME280;55146;47.468;18.806;2023-10-19T04:09:45;99198.19;;;8.87;94.95
68301;BME280;55146;47.468;18.806;2023-10-19T04:12:29;99194.63;;;8.87;95.04
68301;BME280;55146;47.468;18.806;2023-10-19T04:14:55;99194.81;;;9.01;94.26
68301;BME280;55146;47.468;18.806;2023-10-19T04:17:22;99184.09;;;8.99;94.07
68301;BME280;55146;47.468;18.806;2023-10-19T04:19:49;99183.94;;;8.85;94.49
68301;BME280;55146;47.468;18.806;2023-10-19T04:22:16;99187.78;;;8.84;95.50
68301;BME280;55146;47.468;18.806;2023-10-19T04:24:47;99178.91;;;8.98;94.30
68301;BME280;55146;47.468;18.806;2023-10-19T04:27:12;99166.09;;;8.88;95.45
68301;BME280;55146;47.468;18.806;2023-10-19T04:29:38;99171.50;;;8.98;94.74
68301;BME280;55146;47.468;18.806;2023-10-19T04:32:05;99173.78;;;8.86;95.37
68301;BME280;55146;47.468;18.806;2023-10-19T04:34:32;99166.94;;;8.83;96.15
68301;BME280;55146;47.468;18.806;2023-10-19T04:36:57;99167.97;;;8.92;95.35
68301;BME280;55146;47.468;18.806;2023-10-19T04:39:22;99163.31;;;8.93;95.16
68301;BME280;55146;47.468;18.806;2023-10-19T04:41:49;99169.78;;;9.07;94.02
68301;BME280;55146;47.468;18.806;2023-10-19T04:44:15;99164.09;;;8.99;94.66
68301;BME280;55146;47.468;18.806;2023-10-19T04:46:41;99160.28;;;8.95;94.87
68301;BME280;55146;47.468;18.806;2023-10-19T04:49:06;99151.03;;;8.85;95.36
68301;BME280;55146;47.468;18.806;2023-10-19T04:51:32;99160.06;;;8.86;96.00
68301;BME280;55146;47.468;18.806;2023-10-19T04:53:58;99151.53;;;8.92;95.41
68301;BME280;55146;47.468;18.806;2023-10-19T04:56:24;99149.66;;;8.88;95.40
68301;BME280;55146;47.468;18.806;2023-10-19T04:58:49;99153.41;;;8.97;94.91
68301;BME280;55146;47.468;18.806;2023-10-19T05:01:14;99141.97;;;8.85;96.03
68301;BME280;55146;47.468;18.806;2023-10-19T05:03:41;99147.00;;;8.73;96.83
68301;BME280;55146;47.468;18.806;2023-10-19T05:06:06;99136.22;;;8.86;95.95
68301;BME280;55146;47.468;18.806;2023-10-19T05:08:32;99134.63;;;8.80;96.77
68301;BME280;55146;47.468;18.806;2023-10-19T05:10:58;99132.59;;;8.91;96.09
68301;BME280;55146;47.468;18.806;2023-10-19T05:13:27;99135.72;;;8.79;97.07
68301;BME280;55146;47.468;18.806;2023-10-19T05:15:55;99141.66;;;8.91;96.26
68301;BME280;55146;47.468;18.806;2023-10-19T05:18:22;99155.31;;;8.97;95.81
68301;BME280;55146;47.468;18.806;2023-10-19T05:20:48;99153.94;;;8.99;95.62
68301;BME280;55146;47.468;18.806;2023-10-19T05:23:13;99162.00;;;8.85;96.58
68301;BME280;55146;47.468;18.806;2023-10-19T05:25:39;99161.41;;;8.93;96.55
68301;BME280;55146;47.468;18.806;2023-10-19T05:28:05;99154.63;;;9.15;95.11
68301;BME280;55146;47.468;18.806;2023-10-19T05:30:31;99163.44;;;9.12;95.34
68301;BME280;55146;47.468;18.806;2023-10-19T05:32:57;99160.91;;;9.15;95.00
68301;BME280;55146;47.468;18.806;2023-10-19T05:35:25;99152.19;;;9.08;95.91
68301;BME280;55146;47.468;18.806;2023-10-19T05:37:52;99147.78;;;9.12;95.40
68301;BME280;55146;47.468;18.806;2023-10-19T05:40:17;99137.38;;;9.09;95.45
68301;BME280;55146;47.468;18.806;2023-10-19T05:42:44;99138.78;;;9.07;95.53
68301;BME280;55146;47.468;18.806;2023-10-19T05:45:11;99141.97;;;9.19;95.10
68301;BME280;55146;47.468;18.806;2023-10-19T05:47:38;99139.56;;;9.12;95.56
68301;BME280;55146;47.468;18.806;2023-10-19T05:50:04;99144.47;;;9.15;95.08
68301;BME280;55146;47.468;18.806;2023-10-19T05:52:29;99140.66;;;9.11;95.53
68301;BME280;55146;47.468;18.806;2023-10-19T05:54:55;99138.81;;;9.02;96.33
68301;BME280;55146;47.468;18.806;2023-10-19T05:57:20;99132.28;;;8.98;96.97
68301;BME280;55146;47.468;18.806;2023-10-19T05:59:47;99134.06;;;9.12;95.94
68301;BME280;55146;47.468;18.806;2023-10-19T06:02:13;99141.44;;;9.17;95.22
68301;BME280;55146;47.468;18.806;2023-10-19T06:04:38;99128.88;;;9.11;96.12
68301;BME280;55146;47.468;18.806;2023-10-19T06:07:03;99140.06;;;9.14;95.40
68301;BME280;55146;47.468;18.806;2023-10-19T06:09:28;99134.25;;;9.21;95.45
68301;BME280;55146;47.468;18.806;2023-10-19T06:11:56;99142.78;;;9.19;95.39
68301;BME280;55146;47.468;18.806;2023-10-19T06:14:22;99133.44;;;9.20;95.40
68301;BME280;55146;47.468;18.806;2023-10-19T06:16:47;99125.78;;;9.17;96.07
68301;BME280;55146;47.468;18.806;2023-10-19T06:19:12;99123.59;;;9.19;95.93
68301;BME280;55146;47.468;18.806;2023-10-19T06:21:38;99113.59;;;9.28;95.15
68301;BME280;55146;47.468;18.806;2023-10-19T06:24:05;99098.00;;;9.24;95.48
68301;BME280;55146;47.468;18.806;2023-10-19T06:26:30;99093.03;;;9.26;95.66
68301;BME280;55146;47.468;18.806;2023-10-19T06:28:56;99104.81;;;9.31;94.58
68301;BME280;55146;47.468;18.806;2023-10-19T06:31:24;99107.88;;;9.25;94.37
68301;BME280;55146;47.468;18.806;2023-10-19T06:33:50;99118.66;;;9.16;95.30
68301;BME280;55146;47.468;18.806;2023-10-19T06:36:15;99133.34;;;9.30;94.91
68301;BME280;55146;47.468;18.806;2023-10-19T06:38:41;99121.84;;;9.28;94.83
68301;BME280;55146;47.468;18.806;2023-10-19T06:41:13;99129.44;;;9.37;94.50
68301;BME280;55146;47.468;18.806;2023-10-19T06:43:40;99131.31;;;9.41;94.03
68301;BME280;55146;47.468;18.806;2023-10-19T06:46:05;99121.97;;;9.42;94.24
68301;BME280;55146;47.468;18.806;2023-10-19T06:48:32;99119.50;;;9.41;94.67
68301;BME280;55146;47.468;18.806;2023-10-19T06:50:57;99108.38;;;9.56;94.24
68301;BME280;55146;47.468;18.806;2023-10-19T06:53:23;99110.31;;;9.55;93.56
68301;BME280;55146;47.468;18.806;2023-10-19T06:55:48;99109.53;;;9.50;93.63
68301;BME280;55146;47.468;18.806;2023-10-19T06:58:13;99113.09;;;9.74;92.12
68301;BME280;55146;47.468;18.806;2023-10-19T07:00:45;99112.00;;;9.75;91.68
68301;BME280;55146;47.468;18.806;2023-10-19T07:03:10;99100.78;;;9.48;93.41
68301;BME280;55146;47.468;18.806;2023-10-19T07:05:36;99101.69;;;9.38;94.24
68301;BME280;55146;47.468;18.806;2023-10-19T07:08:01;99093.91;;;9.50;93.71
68301;BME280;55146;47.468;18.806;2023-10-19T07:10:28;99076.34;;;9.46;94.49
68301;BME280;55146;47.468;18.806;2023-10-19T07:12:55;99082.00;;;9.79;92.18
68301;BME280;55146;47.468;18.806;2023-10-19T07:15:22;99083.31;;;9.62;93.64
68301;BME280;55146;47.468;18.806;2023-10-19T07:17:48;99071.94;;;9.69;93.63
68301;BME280;55146;47.468;18.806;2023-10-19T07:20:16;99079.88;;;9.94;91.40
68301;BME280;55146;47.468;18.806;2023-10-19T07:23:01;99075.06;;;9.86;92.12
68301;BME280;55146;47.468;18.806;2023-10-19T07:25:44;99080.97;;;9.74;93.70
68301;BME280;55146;47.468;18.806;2023-10-19T07:28:10;99066.06;;;9.81;93.11
68301;BME280;55146;47.468;18.806;2023-10-19T07:30:37;99080.94;;;9.98;91.75
68301;BME280;55146;47.468;18.806;2023-10-19T07:33:03;99060.56;;;9.81;92.94
68301;BME280;55146;47.468;18.806;2023-10-19T07:35:34;99057.06;;;9.75;95.13
68301;BME280;55146;47.468;18.806;2023-10-19T07:38:00;99061.00;;;9.88;92.26
68301;BME280;55146;47.468;18.806;2023-10-19T07:40:26;99050.81;;;9.88;93.05
68301;BME280;55146;47.468;18.806;2023-10-19T07:42:53;99045.34;;;9.88;92.93
68301;BME280;55146;47.468;18.806;2023-10-19T07:45:20;99048.25;;;9.97;91.64
68301;BME280;55146;47.468;18.806;2023-10-19T07:47:45;99052.38;;;9.94;92.29
68301;BME280;55146;47.468;18.806;2023-10-19T07:50:11;99051.53;;;9.99;91.84
68301;BME280;55146;47.468;18.806;2023-10-19T07:52:44;99043.84;;;9.96;92.78
68301;BME280;55146;47.468;18.806;2023-10-19T07:55:10;99046.16;;;10.07;91.69
68301;BME280;55146;47.468;18.806;2023-10-19T07:57:36;99037.41;;;10.05;92.94
68301;BME280;55146;47.468;18.806;2023-10-19T08:00:02;99045.78;;;10.14;93.08
68301;BME280;55146;47.468;18.806;2023-10-19T08:02:29;99033.91;;;10.37;92.52
68301;BME280;55146;47.468;18.806;2023-10-19T08:04:55;99038.63;;;10.69;90.80
68301;BME280;55146;47.468;18.806;2023-10-19T08:07:21;99019.22;;;10.79;89.76
68301;BME280;55146;47.468;18.806;2023-10-19T08:09:46;99031.66;;;10.90;88.42
68301;BME280;55146;47.468;18.806;2023-10-19T08:12:11;99018.31;;;10.98;88.54
68301;BME280;55146;47.468;18.806;2023-10-19T08:14:39;99026.81;;;11.15;87.18
68301;BME280;55146;47.468;18.806;2023-10-19T08:17:04;99020.38;;;11.19;86.46
68301;BME280;55146;47.468;18.806;2023-10-19T08:19:30;99020.91;;;11.21;85.92
68301;BME280;55146;47.468;18.806;2023-10-19T08:21:58;99025.47;;;11.12;86.74
68301;BME280;55146;47.468;18.806;2023-10-19T08:24:23;99026.09;;;11.09;86.96
68301;BME280;55146;47.468;18.806;2023-10-19T08:26:49;99012.75;;;11.16;86.64
68301;BME280;55146;47.468;18.806;2023-10-19T08:29:16;99006.91;;;11.18;87.15
68301;BME280;55146;47.468;18.806;2023-10-19T08:31:42;99007.94;;;11.22;86.61
68301;BME280;55146;47.468;18.806;2023-10-19T08:34:10;99000.06;;;11.43;85.80
68301;BME280;55146;47.468;18.806;2023-10-19T08:36:36;99008.16;;;11.39;85.98
68301;BME280;55146;47.468;18.806;2023-10-19T08:39:06;98998.66;;;11.45;85.22
68301;BME280;55146;47.468;18.806;2023-10-19T08:41:36;98997.66;;;11.41;85.09
68301;BME280;55146;47.468;18.806;2023-10-19T08:44:04;98990.81;;;11.39;85.86
68301;BME280;55146;47.468;18.806;2023-10-19T08:46:29;98974.41;;;11.33;88.00
68301;BME280;55146;47.468;18.806;2023-10-19T08:48:58;98982.00;;;11.64;85.30
68301;BME280;55146;47.468;18.806;2023-10-19T08:51:24;98984.16;;;11.81;84.53
68301;BME280;55146;47.468;18.806;2023-10-19T08:53:53;98967.44;;;11.77;84.14
68301;BME280;55146;47.468;18.806;2023-10-19T08:56:19;98981.19;;;11.91;83.93
68301;BME280;55146;47.468;18.806;2023-10-19T08:58:49;98958.22;;;11.82;84.17
68301;BME280;55146;47.468;18.806;2023-10-19T09:01:14;98978.69;;;12.03;84.11
68301;BME280;55146;47.468;18.806;2023-10-19T09:03:40;98985.84;;;12.26;82.57
68301;BME280;55146;47.468;18.806;2023-10-19T09:06:06;98981.63;;;12.29;82.35
68301;BME280;55146;47.468;18.806;2023-10-19T09:08:33;98974.63;;;12.45;82.05
68301;BME280;55146;47.468;18.806;2023-10-19T09:11:08;98970.34;;;12.61;81.99
68301;BME280;55146;47.468;18.806;2023-10-19T09:13:54;98971.00;;;12.58;81.41
68301;BME280;55146;47.468;18.806;2023-10-19T09:16:21;98980.13;;;12.67;80.75
68301;BME280;55146;47.468;18.806;2023-10-19T09:18:48;98977.81;;;12.61;80.63
68301;BME280;55146;47.468;18.806;2023-10-19T09:21:18;98971.91;;;12.53;81.50
68301;BME280;55146;47.468;18.806;2023-10-19T09:23:56;98971.47;;;12.60;84.17
68301;BME280;55146;47.468;18.806;2023-10-19T09:26:23;98979.75;;;12.91;81.48
68301;BME280;55146;47.468;18.806;2023-10-19T09:28:50;98978.63;;;13.14;80.31
68301;BME280;55146;47.468;18.806;2023-10-19T09:31:17;98967.56;;;13.14;79.58
68301;BME280;55146;47.468;18.806;2023-10-19T09:33:44;98970.41;;;13.09;80.00
68301;BME280;55146;47.468;18.806;2023-10-19T09:36:10;98962.38;;;13.13;80.43
68301;BME280;55146;47.468;18.806;2023-10-19T09:38:46;98957.53;;;13.27;79.32
68301;BME280;55146;47.468;18.806;2023-10-19T09:41:19;98946.53;;;13.44;79.66
68301;BME280;55146;47.468;18.806;2023-10-19T09:43:49;98947.06;;;13.72;79.44
68301;BME280;55146;47.468;18.806;2023-10-19T09:46:22;98941.72;;;13.93;79.25
68301;BME280;55146;47.468;18.806;2023-10-19T09:48:49;98944.50;;;14.10;78.29
68301;BME280;55146;47.468;18.806;2023-10-19T09:51:15;98930.16;;;14.34;77.78
68301;BME280;55146;47.468;18.806;2023-10-19T09:53:44;98925.59;;;14.46;75.21
68301;BME280;55146;47.468;18.806;2023-10-19T09:56:15;98919.75;;;14.39;75.71
68301;BME280;55146;47.468;18.806;2023-10-19T09:58:48;98913.72;;;14.54;76.08
68301;BME280;55146;47.468;18.806;2023-10-19T10:01:15;98907.66;;;14.61;75.13
68301;BME280;55146;47.468;18.806;2023-10-19T10:03:47;98911.06;;;14.67;76.37
68301;BME280;55146;47.468;18.806;2023-10-19T10:06:15;98908.03;;;14.89;73.69
68301;BME280;55146;47.468;18.806;2023-10-19T10:08:43;98903.94;;;14.95;73.53
68301;BME280;55146;47.468;18.806;2023-10-19T10:11:23;98898.88;;;15.06;73.47
68301;BME280;55146;47.468;18.806;2023-10-19T10:13:50;98885.88;;;15.27;74.47
68301;BME280;55146;47.468;18.806;2023-10-19T10:16:36;98881.53;;;15.17;73.43
68301;BME280;55146;47.468;18.806;2023-10-19T10:19:04;98883.94;;;15.19;73.20
68301;BME280;55146;47.468;18.806;2023-10-19T10:21:29;98878.41;;;15.19;72.94
68301;BME280;55146;47.468;18.806;2023-10-19T10:23:59;98871.53;;;15.25;72.95
68301;BME280;55146;47.468;18.806;2023-10-19T10:26:27;98869.03;;;15.32;72.76
68301;BME280;55146;47.468;18.806;2023-10-19T10:31:35;98861.91;;;15.52;73.00
68301;BME280;55146;47.468;18.806;2023-10-19T10:34:08;98858.41;;;15.63;73.22
68301;BME280;55146;47.468;18.806;2023-10-19T10:36:57;98856.25;;;15.90;73.00
68301;BME280;55146;47.468;18.806;2023-10-19T10:39:25;98853.09;;;16.12;72.37
68301;BME280;55146;47.468;18.806;2023-10-19T10:42:01;98851.69;;;16.06;71.89
68301;BME280;55146;47.468;18.806;2023-10-19T10:44:38;98836.03;;;16.22;72.39
68301;BME280;55146;47.468;18.806;2023-10-19T10:47:09;98839.38;;;16.15;71.44
68301;BME280;55146;47.468;18.806;2023-10-19T10:52:26;98830.59;;;15.93;71.89
68301;BME280;55146;47.468;18.806;2023-10-19T10:54:55;98821.56;;;15.84;70.70
68301;BME280;55146;47.468;18.806;2023-10-19T10:57:20;98823.06;;;15.60;71.96
68301;BME280;55146;47.468;18.806;2023-10-19T10:59:46;98815.75;;;15.56;73.97
68301;BME280;55146;47.468;18.806;2023-10-19T11:02:18;98814.75;;;15.93;71.76
68301;BME280;55146;47.468;18.806;2023-10-19T11:04:44;98811.34;;;16.08;71.00
68301;BME280;55146;47.468;18.806;2023-10-19T11:07:17;98811.94;;;15.81;71.00
68301;BME280;55146;47.468;18.806;2023-10-19T11:09:44;98803.19;;;15.58;72.53
68301;BME280;55146;47.468;18.806;2023-10-19T11:12:11;98801.94;;;15.68;72.47
68301;BME280;55146;47.468;18.806;2023-10-19T11:14:37;98797.16;;;15.56;73.44
68301;BME280;55146;47.468;18.806;2023-10-19T11:17:12;98775.72;;;15.65;73.04
68301;BME280;55146;47.468;18.806;2023-10-19T11:19:39;98786.53;;;15.79;72.63
68301;BME280;55146;47.468;18.806;2023-10-19T11:22:09;98778.44;;;15.86;73.05
68301;BME280;55146;47.468;18.806;2023-10-19T11:24:35;98776.16;;;15.88;72.48
68301;BME280;55146;47.468;18.806;2023-10-19T11:27:05;98774.06;;;15.85;72.83
68301;BME280;55146;47.468;18.806;2023-10-19T11:29:32;98772.34;;;15.93;73.16
68301;BME280;55146;47.468;18.806;2023-10-19T11:31:59;98765.06;;;15.88;72.57
68301;BME280;55146;47.468;18.806;2023-10-19T11:34:25;98760.81;;;15.91;73.14
68301;BME280;55146;47.468;18.806;2023-10-19T11:36:56;98756.97;;;15.83;72.94
68301;BME280;55146;47.468;18.806;2023-10-19T11:39:31;98740.06;;;15.76;73.34
68301;BME280;55146;47.468;18.806;2023-10-19T11:41:56;98742.50;;;15.77;75.35
68301;BME280;55146;47.468;18.806;2023-10-19T11:44:22;98733.03;;;15.78;73.79
68301;BME280;55146;47.468;18.806;2023-10-19T11:46:47;98750.37;;;15.88;73.80
68301;BME280;55146;47.468;18.806;2023-10-19T11:49:13;98746.13;;;15.90;74.45
68301;BME280;55146;47.468;18.806;2023-10-19T11:51:38;98738.88;;;15.98;72.67
68301;BME280;55146;47.468;18.806;2023-10-19T11:54:05;98733.91;;;15.70;73.87
68301;BME280;55146;47.468;18.806;2023-10-19T11:56:33;98735.53;;;15.51;74.94
68301;BME280;55146;47.468;18.806;2023-10-19T11:59:00;98732.28;;;15.36;75.61
68301;BME280;55146;47.468;18.806;2023-10-19T12:01:27;98716.91;;;15.39;75.97
68301;BME280;55146;47.468;18.806;2023-10-19T12:03:52;98714.41;;;15.46;75.66
68301;BME280;55146;47.468;18.806;2023-10-19T12:06:17;98706.97;;;15.59;75.45
68301;BME280;55146;47.468;18.806;2023-10-19T12:08:49;98712.22;;;15.52;76.13
68301;BME280;55146;47.468;18.806;2023-10-19T12:11:14;98714.88;;;15.48;76.32
68301;BME280;55146;47.468;18.806;2023-10-19T12:13:47;98708.62;;;15.51;76.14
68301;BME280;55146;47.468;18.806;2023-10-19T12:16:12;98705.28;;;15.46;76.53
68301;BME280;55146;47.468;18.806;2023-10-19T12:18:42;98707.81;;;15.51;76.41
68301;BME280;55146;47.468;18.806;2023-10-19T12:21:08;98692.19;;;15.55;76.15
68301;BME280;55146;47.468;18.806;2023-10-19T12:23:39;98686.16;;;15.53;76.23
68301;BME280;55146;47.468;18.806;2023-10-19T12:26:04;98685.34;;;15.52;75.87
68301;BME280;55146;47.468;18.806;2023-10-19T12:28:38;98695.16;;;15.29;77.17
68301;BME280;55146;47.468;18.806;2023-10-19T12:31:04;98686.91;;;15.20;77.31
68301;BME280;55146;47.468;18.806;2023-10-19T12:33:30;98681.25;;;15.17;77.14
68301;BME280;55146;47.468;18.806;2023-10-19T12:35:56;98676.66;;;15.00;78.69
68301;BME280;55146;47.468;18.806;2023-10-19T12:38:24;98679.03;;;15.10;78.35
68301;BME280;55146;47.468;18.806;2023-10-19T12:40:51;98682.87;;;15.18;78.27
68301;BME280;55146;47.468;18.806;2023-10-19T12:43:17;98673.81;;;15.09;78.42
68301;BME280;55146;47.468;18.806;2023-10-19T12:45:50;98669.44;;;15.08;78.82
68301;BME280;55146;47.468;18.806;2023-10-19T12:48:23;98679.62;;;15.16;78.85
68301;BME280;55146;47.468;18.806;2023-10-19T12:50:54;98675.25;;;15.15;79.00
68301;BME280;55146;47.468;18.806;2023-10-19T12:53:19;98679.91;;;15.23;78.60
68301;BME280;55146;47.468;18.806;2023-10-19T12:55:50;98666.06;;;15.23;78.76
68301;BME280;55146;47.468;18.806;2023-10-19T12:58:15;98666.16;;;15.26;79.18
68301;BME280;55146;47.468;18.806;2023-10-19T13:00:44;98669.84;;;15.51;78.33
68301;BME280;55146;47.468;18.806;2023-10-19T13:03:10;98661.81;;;15.58;77.70
68301;BME280;55146;47.468;18.806;2023-10-19T13:05:39;98651.09;;;15.69;77.67
68301;BME280;55146;47.468;18.806;2023-10-19T13:08:07;98648.69;;;15.80;77.54
68301;BME280;55146;47.468;18.806;2023-10-19T13:10:34;98644.75;;;15.93;77.23